sensor_id;sensor_type;location;lat;lon;timestamp;temperature;humidity
47384;DHT22;33129;52.232;5.192;2022-08-30T00:00:52;19.90;99.90
47384;DHT22;33129;52.232;5.192;2022-08-30T00:03:49;19.60;99.90
47384;DHT22;33129;52.232;5.192;2022-08-30T00:06:15;19.90;99.90
47384;DHT22;33129;52.232;5.192;2022-08-30T00:08:42;19.70;99.90
47384;DHT22;33129;52.232;5.192;2022-08-30T00:11:12;19.90;99.90
47384;DHT22;33129;52.232;5.192;2022-08-30T00:13:42;20.00;99.90
47384;DHT22;33129;52.232;5.192;2022-08-30T00:16:09;20.00;99.90
47384;DHT22;33129;52.232;5.192;2022-08-30T00:18:36;19.80;99.90
47384;DHT22;33129;52.232;5.192;2022-08-30T00:21:03;20.10;99.90
47384;DHT22;33129;52.232;5.192;2022-08-30T00:23:30;19.80;99.90
47384;DHT22;33129;52.232;5.192;2022-08-30T00:25:57;19.70;99.90
47384;DHT22;33129;52.232;5.192;2022-08-30T00:28:23;19.80;99.90
47384;DHT22;33129;52.232;5.192;2022-08-30T00:30:49;19.90;99.90
47384;DHT22;33129;52.232;5.192;2022-08-30T00:33:15;19.70;99.90
47384;DHT22;33129;52.232;5.192;2022-08-30T00:35:42;19.60;99.90
47384;DHT22;33129;52.232;5.192;2022-08-30T00:38:10;19.50;99.90
47384;DHT22;33129;52.232;5.192;2022-08-30T00:40:37;19.60;99.90
47384;DHT22;33129;52.232;5.192;2022-08-30T00:43:07;19.60;99.90
47384;DHT22;33129;52.232;5.192;2022-08-30T00:45:36;19.50;99.90
47384;DHT22;33129;52.232;5.192;2022-08-30T00:48:03;19.50;99.90
47384;DHT22;33129;52.232;5.192;2022-08-30T00:50:39;19.50;99.90
47384;DHT22;33129;52.232;5.192;2022-08-30T00:53:12;19.60;99.90
47384;DHT22;33129;52.232;5.192;2022-08-30T00:55:42;19.50;99.90
47384;DHT22;33129;52.232;5.192;2022-08-30T00:58:12;19.40;99.90
47384;DHT22;33129;52.232;5.192;2022-08-30T01:00:41;19.50;99.90
47384;DHT22;33129;52.232;5.192;2022-08-30T01:03:08;19.40;99.90
47384;DHT22;33129;52.232;5.192;2022-08-30T01:05:36;19.70;99.90
47384;DHT22;33129;52.232;5.192;2022-08-30T01:08:04;18.90;99.90
47384;DHT22;33129;52.232;5.192;2022-08-30T01:10:32;19.00;99.90
47384;DHT22;33129;52.232;5.192;2022-08-30T01:12:59;19.30;99.90
47384;DHT22;33129;52.232;5.192;2022-08-30T01:15:25;19.40;99.90
47384;DHT22;33129;52.232;5.192;2022-08-30T01:17:51;19.40;99.90
47384;DHT22;33129;52.232;5.192;2022-08-30T01:20:23;19.40;99.90
47384;DHT22;33129;52.232;5.192;2022-08-30T01:23:01;19.50;99.90
47384;DHT22;33129;52.232;5.192;2022-08-30T01:25:33;19.20;99.90
47384;DHT22;33129;52.232;5.192;2022-08-30T01:28:04;19.10;99.90
47384;DHT22;33129;52.232;5.192;2022-08-30T01:30:33;19.50;99.90
47384;DHT22;33129;52.232;5.192;2022-08-30T01:33:03;19.00;99.90
47384;DHT22;33129;52.232;5.192;2022-08-30T01:35:37;19.10;99.90
47384;DHT22;33129;52.232;5.192;2022-08-30T01:38:11;19.30;99.90
47384;DHT22;33129;52.232;5.192;2022-08-30T01:40:38;18.80;99.90
47384;DHT22;33129;52.232;5.192;2022-08-30T01:43:05;19.20;99.90
47384;DHT22;33129;52.232;5.192;2022-08-30T01:45:32;18.60;99.90
47384;DHT22;33129;52.232;5.192;2022-08-30T01:47:58;19.10;99.90
47384;DHT22;33129;52.232;5.192;2022-08-30T01:50:24;18.80;99.90
47384;DHT22;33129;52.232;5.192;2022-08-30T01:52:50;18.90;99.90
47384;DHT22;33129;52.232;5.192;2022-08-30T01:55:15;19.30;99.90
47384;DHT22;33129;52.232;5.192;2022-08-30T01:57:41;19.20;99.90
47384;DHT22;33129;52.232;5.192;2022-08-30T02:00:08;19.00;99.90
47384;DHT22;33129;52.232;5.192;2022-08-30T02:02:35;19.00;99.90
47384;DHT22;33129;52.232;5.192;2022-08-30T02:05:01;19.20;99.90
47384;DHT22;33129;52.232;5.192;2022-08-30T02:07:27;19.20;99.90
47384;DHT22;33129;52.232;5.192;2022-08-30T02:09:52;19.20;99.90
47384;DHT22;33129;52.232;5.192;2022-08-30T02:12:19;19.40;99.90
47384;DHT22;33129;52.232;5.192;2022-08-30T02:14:45;19.00;99.90
47384;DHT22;33129;52.232;5.192;2022-08-30T02:17:12;18.90;99.90
47384;DHT22;33129;52.232;5.192;2022-08-30T02:19:39;18.80;99.90
47384;DHT22;33129;52.232;5.192;2022-08-30T02:22:06;19.30;99.90
47384;DHT22;33129;52.232;5.192;2022-08-30T02:24:32;19.30;99.90
47384;DHT22;33129;52.232;5.192;2022-08-30T02:26:57;18.90;99.90
47384;DHT22;33129;52.232;5.192;2022-08-30T02:29:24;18.90;99.90
47384;DHT22;33129;52.232;5.192;2022-08-30T02:31:50;19.20;99.90
47384;DHT22;33129;52.232;5.192;2022-08-30T02:34:16;19.10;99.90
47384;DHT22;33129;52.232;5.192;2022-08-30T02:36:43;19.30;99.90
47384;DHT22;33129;52.232;5.192;2022-08-30T02:39:11;19.20;99.90
47384;DHT22;33129;52.232;5.192;2022-08-30T02:41:38;18.90;99.90
47384;DHT22;33129;52.232;5.192;2022-08-30T02:44:05;19.20;99.90
47384;DHT22;33129;52.232;5.192;2022-08-30T02:46:32;18.60;99.90
47384;DHT22;33129;52.232;5.192;2022-08-30T02:48:58;19.10;99.90
47384;DHT22;33129;52.232;5.192;2022-08-30T02:51:24;18.70;99.90
47384;DHT22;33129;52.232;5.192;2022-08-30T02:53:50;19.00;99.90
47384;DHT22;33129;52.232;5.192;2022-08-30T02:56:16;19.10;99.90
47384;DHT22;33129;52.232;5.192;2022-08-30T02:58:43;19.10;99.90
47384;DHT22;33129;52.232;5.192;2022-08-30T03:01:11;19.10;99.90
47384;DHT22;33129;52.232;5.192;2022-08-30T03:03:39;18.70;99.90
47384;DHT22;33129;52.232;5.192;2022-08-30T03:06:06;18.80;99.90
47384;DHT22;33129;52.232;5.192;2022-08-30T03:08:32;18.90;99.90
47384;DHT22;33129;52.232;5.192;2022-08-30T03:10:59;18.80;99.90
47384;DHT22;33129;52.232;5.192;2022-08-30T03:13:24;18.90;99.90
47384;DHT22;33129;52.232;5.192;2022-08-30T03:15:50;19.00;99.90
47384;DHT22;33129;52.232;5.192;2022-08-30T03:18:17;18.90;99.90
47384;DHT22;33129;52.232;5.192;2022-08-30T03:20:44;19.00;99.90
47384;DHT22;33129;52.232;5.192;2022-08-30T03:23:13;18.90;99.90
47384;DHT22;33129;52.232;5.192;2022-08-30T03:25:40;18.90;99.90
47384;DHT22;33129;52.232;5.192;2022-08-30T03:28:06;18.70;99.90
47384;DHT22;33129;52.232;5.192;2022-08-30T03:30:32;18.90;99.90
47384;DHT22;33129;52.232;5.192;2022-08-30T03:33:00;19.00;99.90
47384;DHT22;33129;52.232;5.192;2022-08-30T03:35:28;19.10;99.90
47384;DHT22;33129;52.232;5.192;2022-08-30T03:37:56;18.90;99.90
47384;DHT22;33129;52.232;5.192;2022-08-30T03:40:22;18.70;99.90
47384;DHT22;33129;52.232;5.192;2022-08-30T03:42:48;18.60;99.90
47384;DHT22;33129;52.232;5.192;2022-08-30T03:45:15;18.70;99.90
47384;DHT22;33129;52.232;5.192;2022-08-30T03:47:43;18.90;99.90
47384;DHT22;33129;52.232;5.192;2022-08-30T03:50:10;18.70;99.90
47384;DHT22;33129;52.232;5.192;2022-08-30T03:52:38;18.80;99.90
47384;DHT22;33129;52.232;5.192;2022-08-30T03:55:04;18.70;99.90
47384;DHT22;33129;52.232;5.192;2022-08-30T03:57:30;18.60;99.90
47384;DHT22;33129;52.232;5.192;2022-08-30T03:59:56;18.00;99.90
47384;DHT22;33129;52.232;5.192;2022-08-30T04:02:22;18.50;99.90
47384;DHT22;33129;52.232;5.192;2022-08-30T04:04:48;18.70;99.90
47384;DHT22;33129;52.232;5.192;2022-08-30T04:07:13;18.00;99.90
47384;DHT22;33129;52.232;5.192;2022-08-30T04:09:39;18.40;99.90
47384;DHT22;33129;52.232;5.192;2022-08-30T04:12:05;18.30;99.90
47384;DHT22;33129;52.232;5.192;2022-08-30T04:14:30;18.60;99.90
47384;DHT22;33129;52.232;5.192;2022-08-30T04:16:57;18.20;99.90
47384;DHT22;33129;52.232;5.192;2022-08-30T04:19:23;18.30;99.90
47384;DHT22;33129;52.232;5.192;2022-08-30T04:21:48;18.10;99.90
47384;DHT22;33129;52.232;5.192;2022-08-30T04:24:14;17.90;99.90
47384;DHT22;33129;52.232;5.192;2022-08-30T04:26:40;18.10;99.90
47384;DHT22;33129;52.232;5.192;2022-08-30T04:29:06;18.10;99.90
47384;DHT22;33129;52.232;5.192;2022-08-30T04:31:31;18.20;99.90
47384;DHT22;33129;52.232;5.192;2022-08-30T04:33:57;18.20;99.90
47384;DHT22;33129;52.232;5.192;2022-08-30T04:36:23;17.80;99.90
47384;DHT22;33129;52.232;5.192;2022-08-30T04:38:48;18.40;99.90
47384;DHT22;33129;52.232;5.192;2022-08-30T04:41:16;18.20;99.90
47384;DHT22;33129;52.232;5.192;2022-08-30T04:43:45;18.00;99.90
47384;DHT22;33129;52.232;5.192;2022-08-30T04:46:12;18.10;99.90
47384;DHT22;33129;52.232;5.192;2022-08-30T04:48:40;17.90;99.90
47384;DHT22;33129;52.232;5.192;2022-08-30T04:51:09;17.70;99.90
47384;DHT22;33129;52.232;5.192;2022-08-30T04:53:37;18.00;1.00
47384;DHT22;33129;52.232;5.192;2022-08-30T04:56:11;17.80;1.00
47384;DHT22;33129;52.232;5.192;2022-08-30T04:58:41;18.30;1.00
47384;DHT22;33129;52.232;5.192;2022-08-30T05:01:17;18.10;1.00
47384;DHT22;33129;52.232;5.192;2022-08-30T05:03:45;18.30;1.00
47384;DHT22;33129;52.232;5.192;2022-08-30T05:06:12;18.20;1.00
47384;DHT22;33129;52.232;5.192;2022-08-30T05:08:39;18.10;1.00
47384;DHT22;33129;52.232;5.192;2022-08-30T05:11:06;18.00;1.00
47384;DHT22;33129;52.232;5.192;2022-08-30T05:13:33;17.90;1.00
47384;DHT22;33129;52.232;5.192;2022-08-30T05:16:00;17.90;1.00
47384;DHT22;33129;52.232;5.192;2022-08-30T05:18:27;17.90;1.00
47384;DHT22;33129;52.232;5.192;2022-08-30T05:23:35;18.20;1.00
47384;DHT22;33129;52.232;5.192;2022-08-30T05:26:15;18.00;1.00
47384;DHT22;33129;52.232;5.192;2022-08-30T05:28:43;17.90;1.00
47384;DHT22;33129;52.232;5.192;2022-08-30T05:31:15;17.90;1.00
47384;DHT22;33129;52.232;5.192;2022-08-30T05:33:43;17.60;1.00
47384;DHT22;33129;52.232;5.192;2022-08-30T05:36:10;17.80;1.00
47384;DHT22;33129;52.232;5.192;2022-08-30T05:38:37;18.00;1.00
47384;DHT22;33129;52.232;5.192;2022-08-30T05:41:03;18.20;1.00
47384;DHT22;33129;52.232;5.192;2022-08-30T05:43:32;18.10;1.00
47384;DHT22;33129;52.232;5.192;2022-08-30T05:46:04;18.20;1.00
47384;DHT22;33129;52.232;5.192;2022-08-30T05:48:33;18.00;1.00
47384;DHT22;33129;52.232;5.192;2022-08-30T05:51:06;18.00;1.00
47384;DHT22;33129;52.232;5.192;2022-08-30T05:53:34;18.40;99.90
47384;DHT22;33129;52.232;5.192;2022-08-30T05:56:02;18.40;99.90
47384;DHT22;33129;52.232;5.192;2022-08-30T05:58:31;18.40;99.90
47384;DHT22;33129;52.232;5.192;2022-08-30T06:00:57;18.50;99.90
47384;DHT22;33129;52.232;5.192;2022-08-30T06:03:23;18.30;99.90
47384;DHT22;33129;52.232;5.192;2022-08-30T06:05:49;18.80;99.90
47384;DHT22;33129;52.232;5.192;2022-08-30T06:08:15;18.60;99.90
47384;DHT22;33129;52.232;5.192;2022-08-30T06:10:41;18.90;99.90
47384;DHT22;33129;52.232;5.192;2022-08-30T06:13:07;18.90;99.90
47384;DHT22;33129;52.232;5.192;2022-08-30T06:15:33;19.00;99.90
47384;DHT22;33129;52.232;5.192;2022-08-30T06:17:58;19.20;99.90
47384;DHT22;33129;52.232;5.192;2022-08-30T06:20:26;19.10;99.90
47384;DHT22;33129;52.232;5.192;2022-08-30T06:22:52;18.90;99.90
47384;DHT22;33129;52.232;5.192;2022-08-30T06:25:19;18.60;99.90
47384;DHT22;33129;52.232;5.192;2022-08-30T06:27:44;19.40;99.90
47384;DHT22;33129;52.232;5.192;2022-08-30T06:30:10;19.50;99.90
47384;DHT22;33129;52.232;5.192;2022-08-30T06:32:38;20.00;99.90
47384;DHT22;33129;52.232;5.192;2022-08-30T06:35:05;20.50;99.90
47384;DHT22;33129;52.232;5.192;2022-08-30T06:37:33;20.90;99.90
47384;DHT22;33129;52.232;5.192;2022-08-30T06:39:59;21.30;99.90
47384;DHT22;33129;52.232;5.192;2022-08-30T06:42:29;21.50;99.90
47384;DHT22;33129;52.232;5.192;2022-08-30T06:44:57;21.80;99.90
47384;DHT22;33129;52.232;5.192;2022-08-30T06:47:24;22.10;99.90
47384;DHT22;33129;52.232;5.192;2022-08-30T06:49:50;22.20;99.90
47384;DHT22;33129;52.232;5.192;2022-08-30T06:52:16;22.40;99.90
47384;DHT22;33129;52.232;5.192;2022-08-30T06:54:41;22.80;99.90
47384;DHT22;33129;52.232;5.192;2022-08-30T06:57:07;23.00;99.90
47384;DHT22;33129;52.232;5.192;2022-08-30T06:59:32;23.20;99.90
47384;DHT22;33129;52.232;5.192;2022-08-30T07:01:58;23.40;99.90
47384;DHT22;33129;52.232;5.192;2022-08-30T07:04:24;23.50;99.90
47384;DHT22;33129;52.232;5.192;2022-08-30T07:06:51;23.70;99.90
47384;DHT22;33129;52.232;5.192;2022-08-30T07:09:16;23.60;99.90
47384;DHT22;33129;52.232;5.192;2022-08-30T07:11:43;23.90;99.90
47384;DHT22;33129;52.232;5.192;2022-08-30T07:14:09;23.90;99.90
47384;DHT22;33129;52.232;5.192;2022-08-30T07:16:35;24.30;99.90
47384;DHT22;33129;52.232;5.192;2022-08-30T07:19:02;24.30;99.90
47384;DHT22;33129;52.232;5.192;2022-08-30T07:21:32;24.20;99.90
47384;DHT22;33129;52.232;5.192;2022-08-30T07:24:01;24.40;99.90
47384;DHT22;33129;52.232;5.192;2022-08-30T07:26:34;24.40;99.90
47384;DHT22;33129;52.232;5.192;2022-08-30T07:29:02;24.70;99.90
47384;DHT22;33129;52.232;5.192;2022-08-30T07:31:30;24.70;99.90
47384;DHT22;33129;52.232;5.192;2022-08-30T07:33:58;24.90;99.90
47384;DHT22;33129;52.232;5.192;2022-08-30T07:36:24;25.00;99.90
47384;DHT22;33129;52.232;5.192;2022-08-30T07:38:51;24.80;99.90
47384;DHT22;33129;52.232;5.192;2022-08-30T07:41:29;25.00;99.90
47384;DHT22;33129;52.232;5.192;2022-08-30T07:43:56;25.10;99.90
47384;DHT22;33129;52.232;5.192;2022-08-30T07:46:23;25.10;99.90
47384;DHT22;33129;52.232;5.192;2022-08-30T07:48:49;25.50;99.90
47384;DHT22;33129;52.232;5.192;2022-08-30T07:51:19;25.10;99.90
47384;DHT22;33129;52.232;5.192;2022-08-30T07:53:47;25.40;99.90
47384;DHT22;33129;52.232;5.192;2022-08-30T07:56:14;25.80;99.90
47384;DHT22;33129;52.232;5.192;2022-08-30T07:58:41;25.70;99.90
47384;DHT22;33129;52.232;5.192;2022-08-30T08:01:08;25.80;99.90
47384;DHT22;33129;52.232;5.192;2022-08-30T08:03:36;25.30;99.90
47384;DHT22;33129;52.232;5.192;2022-08-30T08:06:05;25.50;99.90
47384;DHT22;33129;52.232;5.192;2022-08-30T08:08:33;25.80;99.90
47384;DHT22;33129;52.232;5.192;2022-08-30T08:11:06;25.70;99.90
47384;DHT22;33129;52.232;5.192;2022-08-30T08:13:32;25.50;99.90
47384;DHT22;33129;52.232;5.192;2022-08-30T08:15:58;25.70;99.90
47384;DHT22;33129;52.232;5.192;2022-08-30T08:18:24;25.90;99.90
47384;DHT22;33129;52.232;5.192;2022-08-30T08:20:50;26.00;99.90
47384;DHT22;33129;52.232;5.192;2022-08-30T08:23:16;26.30;99.90
47384;DHT22;33129;52.232;5.192;2022-08-30T08:25:41;26.60;99.90
47384;DHT22;33129;52.232;5.192;2022-08-30T08:28:08;26.70;99.90
47384;DHT22;33129;52.232;5.192;2022-08-30T08:30:36;26.70;99.90
47384;DHT22;33129;52.232;5.192;2022-08-30T08:33:03;27.00;99.90
47384;DHT22;33129;52.232;5.192;2022-08-30T08:35:29;26.40;99.90
47384;DHT22;33129;52.232;5.192;2022-08-30T08:37:55;26.70;99.90
47384;DHT22;33129;52.232;5.192;2022-08-30T08:40:21;26.70;99.90
47384;DHT22;33129;52.232;5.192;2022-08-30T08:48:39;26.80;99.90
47384;DHT22;33129;52.232;5.192;2022-08-30T08:51:15;27.50;99.90
47384;DHT22;33129;52.232;5.192;2022-08-30T08:54:14;27.70;99.90
47384;DHT22;33129;52.232;5.192;2022-08-30T08:56:52;27.30;99.90
47384;DHT22;33129;52.232;5.192;2022-08-30T08:59:18;27.60;99.90
47384;DHT22;33129;52.232;5.192;2022-08-30T09:01:45;28.00;99.90
47384;DHT22;33129;52.232;5.192;2022-08-30T09:04:25;27.80;99.90
47384;DHT22;33129;52.232;5.192;2022-08-30T09:07:33;27.60;99.90
47384;DHT22;33129;52.232;5.192;2022-08-30T09:09:57;27.80;99.90
47384;DHT22;33129;52.232;5.192;2022-08-30T09:12:25;28.50;99.90
47384;DHT22;33129;52.232;5.192;2022-08-30T09:14:54;28.10;99.90
47384;DHT22;33129;52.232;5.192;2022-08-30T09:17:23;28.50;99.90
47384;DHT22;33129;52.232;5.192;2022-08-30T09:22:40;28.50;99.90
47384;DHT22;33129;52.232;5.192;2022-08-30T09:27:45;28.10;99.90
47384;DHT22;33129;52.232;5.192;2022-08-30T09:30:23;28.10;99.90
47384;DHT22;33129;52.232;5.192;2022-08-30T09:32:58;28.00;99.90
47384;DHT22;33129;52.232;5.192;2022-08-30T09:35:32;28.00;99.90
47384;DHT22;33129;52.232;5.192;2022-08-30T09:38:16;28.00;99.90
47384;DHT22;33129;52.232;5.192;2022-08-30T09:40:56;28.10;99.90
47384;DHT22;33129;52.232;5.192;2022-08-30T09:43:24;27.80;99.90
47384;DHT22;33129;52.232;5.192;2022-08-30T09:56:17;28.80;99.90
47384;DHT22;33129;52.232;5.192;2022-08-30T09:59:18;28.40;99.90
47384;DHT22;33129;52.232;5.192;2022-08-30T10:02:29;28.90;99.90
47384;DHT22;33129;52.232;5.192;2022-08-30T10:05:06;28.70;99.90
47384;DHT22;33129;52.232;5.192;2022-08-30T10:07:56;28.50;99.90
47384;DHT22;33129;52.232;5.192;2022-08-30T10:10:50;28.50;99.90
47384;DHT22;33129;52.232;5.192;2022-08-30T10:24:38;28.40;99.90
47384;DHT22;33129;52.232;5.192;2022-08-30T10:27:18;28.60;99.90
47384;DHT22;33129;52.232;5.192;2022-08-30T10:30:04;28.50;99.90
47384;DHT22;33129;52.232;5.192;2022-08-30T10:32:53;28.20;99.90
47384;DHT22;33129;52.232;5.192;2022-08-30T10:35:32;28.50;99.90
47384;DHT22;33129;52.232;5.192;2022-08-30T10:38:07;28.80;99.90
47384;DHT22;33129;52.232;5.192;2022-08-30T10:40:38;28.60;99.90
47384;DHT22;33129;52.232;5.192;2022-08-30T10:46:51;29.10;99.90
47384;DHT22;33129;52.232;5.192;2022-08-30T10:49:36;28.90;99.90
47384;DHT22;33129;52.232;5.192;2022-08-30T10:52:19;28.90;99.90
47384;DHT22;33129;52.232;5.192;2022-08-30T10:55:13;28.40;99.90
47384;DHT22;33129;52.232;5.192;2022-08-30T10:57:41;28.70;99.90
47384;DHT22;33129;52.232;5.192;2022-08-30T11:00:09;29.20;99.90
47384;DHT22;33129;52.232;5.192;2022-08-30T11:14:17;29.10;99.90
47384;DHT22;33129;52.232;5.192;2022-08-30T11:16:47;29.30;99.90
47384;DHT22;33129;52.232;5.192;2022-08-30T11:22:13;29.70;99.90
47384;DHT22;33129;52.232;5.192;2022-08-30T11:25:06;29.50;99.90
47384;DHT22;33129;52.232;5.192;2022-08-30T11:27:50;29.70;99.90
47384;DHT22;33129;52.232;5.192;2022-08-30T11:33:02;29.90;99.90
47384;DHT22;33129;52.232;5.192;2022-08-30T11:35:49;29.40;99.90
47384;DHT22;33129;52.232;5.192;2022-08-30T11:54:54;29.60;99.90
47384;DHT22;33129;52.232;5.192;2022-08-30T11:57:44;29.40;99.90
47384;DHT22;33129;52.232;5.192;2022-08-30T12:00:37;29.40;99.90
47384;DHT22;33129;52.232;5.192;2022-08-30T12:03:07;29.40;99.90
47384;DHT22;33129;52.232;5.192;2022-08-30T12:05:55;29.10;99.90
47384;DHT22;33129;52.232;5.192;2022-08-30T12:11:06;29.10;99.90
47384;DHT22;33129;52.232;5.192;2022-08-30T12:13:53;29.20;99.90
47384;DHT22;33129;52.232;5.192;2022-08-30T12:16:41;29.50;99.90
47384;DHT22;33129;52.232;5.192;2022-08-30T12:19:29;29.20;99.90
47384;DHT22;33129;52.232;5.192;2022-08-30T12:22:02;29.00;99.90
47384;DHT22;33129;52.232;5.192;2022-08-30T12:24:38;29.30;99.90
47384;DHT22;33129;52.232;5.192;2022-08-30T12:27:29;28.80;99.90
47384;DHT22;33129;52.232;5.192;2022-08-30T12:30:02;28.50;99.90
47384;DHT22;33129;52.232;5.192;2022-08-30T12:32:30;28.80;99.90
47384;DHT22;33129;52.232;5.192;2022-08-30T12:34:58;28.90;99.90
47384;DHT22;33129;52.232;5.192;2022-08-30T12:37:35;29.60;99.90
47384;DHT22;33129;52.232;5.192;2022-08-30T12:40:11;29.60;99.90
47384;DHT22;33129;52.232;5.192;2022-08-30T12:42:46;29.80;99.90
47384;DHT22;33129;52.232;5.192;2022-08-30T12:45:19;29.50;99.90
47384;DHT22;33129;52.232;5.192;2022-08-30T12:47:52;29.40;99.90
47384;DHT22;33129;52.232;5.192;2022-08-30T12:50:29;29.10;99.90
47384;DHT22;33129;52.232;5.192;2022-08-30T12:53:06;29.10;99.90
47384;DHT22;33129;52.232;5.192;2022-08-30T12:55:50;29.10;99.90
47384;DHT22;33129;52.232;5.192;2022-08-30T13:07:22;28.90;99.90
47384;DHT22;33129;52.232;5.192;2022-08-30T13:12:09;28.90;99.90
47384;DHT22;33129;52.232;5.192;2022-08-30T13:14:45;28.00;99.90
47384;DHT22;33129;52.232;5.192;2022-08-30T13:17:23;28.00;99.90
47384;DHT22;33129;52.232;5.192;2022-08-30T13:22:31;28.50;99.90
47384;DHT22;33129;52.232;5.192;2022-08-30T13:24:59;28.70;99.90
47384;DHT22;33129;52.232;5.192;2022-08-30T13:27:26;28.60;99.90
47384;DHT22;33129;52.232;5.192;2022-08-30T13:29:52;28.80;99.90
47384;DHT22;33129;52.232;5.192;2022-08-30T13:32:19;28.40;99.90
47384;DHT22;33129;52.232;5.192;2022-08-30T13:34:45;28.60;99.90
47384;DHT22;33129;52.232;5.192;2022-08-30T13:37:17;28.60;99.90
47384;DHT22;33129;52.232;5.192;2022-08-30T13:39:46;29.00;99.90
47384;DHT22;33129;52.232;5.192;2022-08-30T13:42:11;29.10;99.90
47384;DHT22;33129;52.232;5.192;2022-08-30T13:44:37;29.20;99.90
47384;DHT22;33129;52.232;5.192;2022-08-30T13:47:03;28.80;99.90
47384;DHT22;33129;52.232;5.192;2022-08-30T13:49:32;28.60;99.90
47384;DHT22;33129;52.232;5.192;2022-08-30T13:52:00;28.60;99.90
47384;DHT22;33129;52.232;5.192;2022-08-30T13:54:27;28.40;99.90
47384;DHT22;33129;52.232;5.192;2022-08-30T13:56:54;28.50;99.90
47384;DHT22;33129;52.232;5.192;2022-08-30T13:59:20;28.30;99.90
47384;DHT22;33129;52.232;5.192;2022-08-30T14:01:48;28.60;99.90
47384;DHT22;33129;52.232;5.192;2022-08-30T14:04:14;28.40;99.90
47384;DHT22;33129;52.232;5.192;2022-08-30T14:06:41;28.10;99.90
47384;DHT22;33129;52.232;5.192;2022-08-30T14:09:07;28.40;99.90
47384;DHT22;33129;52.232;5.192;2022-08-30T14:11:35;28.60;99.90
47384;DHT22;33129;52.232;5.192;2022-08-30T14:14:01;28.60;99.90
47384;DHT22;33129;52.232;5.192;2022-08-30T14:16:28;28.20;99.90
47384;DHT22;33129;52.232;5.192;2022-08-30T14:18:56;28.40;99.90
47384;DHT22;33129;52.232;5.192;2022-08-30T14:21:22;27.80;99.90
47384;DHT22;33129;52.232;5.192;2022-08-30T14:23:48;27.90;99.90
47384;DHT22;33129;52.232;5.192;2022-08-30T14:26:17;27.90;99.90
47384;DHT22;33129;52.232;5.192;2022-08-30T14:28:54;27.50;99.90
47384;DHT22;33129;52.232;5.192;2022-08-30T14:31:20;27.60;99.90
47384;DHT22;33129;52.232;5.192;2022-08-30T14:33:46;27.60;99.90
47384;DHT22;33129;52.232;5.192;2022-08-30T14:36:12;27.60;99.90
47384;DHT22;33129;52.232;5.192;2022-08-30T14:38:38;27.10;99.90
47384;DHT22;33129;52.232;5.192;2022-08-30T14:41:05;27.30;99.90
47384;DHT22;33129;52.232;5.192;2022-08-30T14:43:32;27.40;99.90
47384;DHT22;33129;52.232;5.192;2022-08-30T14:46:00;27.60;99.90
47384;DHT22;33129;52.232;5.192;2022-08-30T14:48:26;27.70;99.90
47384;DHT22;33129;52.232;5.192;2022-08-30T14:50:52;28.00;99.90
47384;DHT22;33129;52.232;5.192;2022-08-30T14:53:18;27.60;99.90
47384;DHT22;33129;52.232;5.192;2022-08-30T14:55:43;28.10;99.90
47384;DHT22;33129;52.232;5.192;2022-08-30T14:58:09;28.00;99.90
47384;DHT22;33129;52.232;5.192;2022-08-30T15:00:36;27.80;99.90
47384;DHT22;33129;52.232;5.192;2022-08-30T15:03:03;27.80;99.90
47384;DHT22;33129;52.232;5.192;2022-08-30T15:05:29;27.80;99.90
47384;DHT22;33129;52.232;5.192;2022-08-30T15:07:56;27.70;99.90
47384;DHT22;33129;52.232;5.192;2022-08-30T15:10:23;27.70;99.90
47384;DHT22;33129;52.232;5.192;2022-08-30T15:12:50;27.60;99.90
47384;DHT22;33129;52.232;5.192;2022-08-30T15:15:19;27.70;99.90
47384;DHT22;33129;52.232;5.192;2022-08-30T15:17:49;27.40;99.90
47384;DHT22;33129;52.232;5.192;2022-08-30T15:20:15;27.40;99.90
47384;DHT22;33129;52.232;5.192;2022-08-30T15:22:45;27.40;99.90
47384;DHT22;33129;52.232;5.192;2022-08-30T15:25:11;27.70;99.90
47384;DHT22;33129;52.232;5.192;2022-08-30T15:27:37;27.40;99.90
47384;DHT22;33129;52.232;5.192;2022-08-30T15:30:04;27.30;99.90
47384;DHT22;33129;52.232;5.192;2022-08-30T15:32:31;27.00;99.90
47384;DHT22;33129;52.232;5.192;2022-08-30T15:34:59;27.00;99.90
47384;DHT22;33129;52.232;5.192;2022-08-30T15:37:29;27.20;99.90
47384;DHT22;33129;52.232;5.192;2022-08-30T15:39:54;27.50;99.90
47384;DHT22;33129;52.232;5.192;2022-08-30T15:42:20;27.50;99.90
47384;DHT22;33129;52.232;5.192;2022-08-30T15:44:51;27.40;99.90
47384;DHT22;33129;52.232;5.192;2022-08-30T15:47:20;27.70;99.90
47384;DHT22;33129;52.232;5.192;2022-08-30T15:49:57;27.50;99.90
47384;DHT22;33129;52.232;5.192;2022-08-30T15:52:25;27.40;99.90
47384;DHT22;33129;52.232;5.192;2022-08-30T15:54:51;27.20;99.90
47384;DHT22;33129;52.232;5.192;2022-08-30T15:57:17;27.40;99.90
47384;DHT22;33129;52.232;5.192;2022-08-30T15:59:43;27.20;99.90
47384;DHT22;33129;52.232;5.192;2022-08-30T16:02:09;27.20;99.90
47384;DHT22;33129;52.232;5.192;2022-08-30T16:04:35;26.70;99.90
47384;DHT22;33129;52.232;5.192;2022-08-30T16:07:02;26.90;99.90
47384;DHT22;33129;52.232;5.192;2022-08-30T16:09:32;26.80;99.90
47384;DHT22;33129;52.232;5.192;2022-08-30T16:12:00;27.00;99.90
47384;DHT22;33129;52.232;5.192;2022-08-30T16:14:26;27.00;99.90
47384;DHT22;33129;52.232;5.192;2022-08-30T16:16:52;26.90;99.90
47384;DHT22;33129;52.232;5.192;2022-08-30T16:19:18;26.90;99.90
47384;DHT22;33129;52.232;5.192;2022-08-30T16:21:44;27.00;99.90
47384;DHT22;33129;52.232;5.192;2022-08-30T16:24:11;26.80;99.90
47384;DHT22;33129;52.232;5.192;2022-08-30T16:26:38;26.80;99.90
47384;DHT22;33129;52.232;5.192;2022-08-30T16:29:06;27.00;99.90
47384;DHT22;33129;52.232;5.192;2022-08-30T16:31:33;27.00;99.90
47384;DHT22;33129;52.232;5.192;2022-08-30T16:33:59;27.00;99.90
47384;DHT22;33129;52.232;5.192;2022-08-30T16:36:26;26.80;99.90
47384;DHT22;33129;52.232;5.192;2022-08-30T16:38:53;26.70;99.90
47384;DHT22;33129;52.232;5.192;2022-08-30T16:41:20;26.70;99.90
47384;DHT22;33129;52.232;5.192;2022-08-30T16:43:47;26.70;99.90
47384;DHT22;33129;52.232;5.192;2022-08-30T16:46:15;27.00;99.90
47384;DHT22;33129;52.232;5.192;2022-08-30T16:48:44;26.70;99.90
47384;DHT22;33129;52.232;5.192;2022-08-30T16:51:13;26.70;99.90
47384;DHT22;33129;52.232;5.192;2022-08-30T16:53:41;26.70;99.90
47384;DHT22;33129;52.232;5.192;2022-08-30T16:56:14;26.70;99.90
47384;DHT22;33129;52.232;5.192;2022-08-30T16:58:43;26.70;99.90
47384;DHT22;33129;52.232;5.192;2022-08-30T17:01:10;26.50;99.90
47384;DHT22;33129;52.232;5.192;2022-08-30T17:03:37;26.60;99.90
47384;DHT22;33129;52.232;5.192;2022-08-30T17:06:03;26.60;99.90
47384;DHT22;33129;52.232;5.192;2022-08-30T17:08:28;26.60;99.90
47384;DHT22;33129;52.232;5.192;2022-08-30T17:10:54;26.50;99.90
47384;DHT22;33129;52.232;5.192;2022-08-30T17:13:20;26.60;99.90
47384;DHT22;33129;52.232;5.192;2022-08-30T17:15:46;26.50;99.90